Aviation Digital Data Service (ADDS)

Output produced by METARs form (1558 UTC 28 April 2015)
found at http://aviationweather.gov/adds/metars/
 
KLFT 281553Z 07006KT 10SM OVC007 18/16 A2984 RMK AO2 SLP102 T01830161